KGON/GON METAR and TAF weather

Enter ICAO airport designator
Station Type Date Time Source
KGON METAR 2021/09/25 02:56 UTC NOAA

KGON 250256Z AUTO 00000KT 10SM FEW075 16/16 A3005 RMK AO2 SLP175 T01610156 50002


Station Type Date Time Source
KGON Decoded METAR 2021/09/25 02:56 UTC NOAA

GROTON/NEW LONDON AIRPORT , CT, United States (KGON) 41-20N 72-03W 3M
Sep 24, 2021 - 10:56 PM EDT / 2021.09.25 0256 UTC
Wind: Calm:0
Visibility: 10 mile(s):0
Sky conditions: mostly clear
Temperature: 61.0 F (16.1 C)
Dew Point: 60.1 F (15.6 C)
Relative Humidity: 96%
Pressure (altimeter): 30.05 in. Hg (1017 hPa)
Pressure tendency: 0.01 inches (0.2 hPa) higher than three hours ago
ob: KGON 250256Z AUTO 00000KT 10SM FEW075 16/16 A3005 RMK AO2 SLP175 T01610156 50002
cycle: 3

Station Type Date Time Source
KGON TAF 2021/09/25 03:42 UTC NOAA

TAF
AMD KGON 250240Z 2503/2524 34004KT P6SM SCT060 BKN250
TEMPO 2503/2505 BKN060
FM250600 01004KT P6SM BKN090
FM251000 01004KT P6SM SCT090
FM251500 12005KT P6SM SCT050 SCT250
FM251700 19006KT P6SM BKN045
FM252200 VRB03KT P6SM VCSH BKN040

Example: see airport list